Time;durP1;ratioP1;P1;durP2;ratioP2;P2;SDS_P1;SDS_P2;PMS_P1;PMS_P2;Temp;Humidity;BMP_temperature;BMP_pressure;BME280_temperature;BME280_humidity;BME280_pressure;Samples;Min_cycle;Max_cycle;Signal;HPM_P1;HPM_P2
2022/06/03 00:00:46;;;;;;;;;12.00;12.00;;;;;-142.71;100.00;64517.53;3723599;37;20829;-64
2022/06/03 00:03:18;;;;;;;;;14.00;14.00;;;;;-142.71;100.00;64517.53;3723371;37;20591;-63
2022/06/03 00:05:51;;;;;;;;;15.00;14.25;;;;;-142.71;100.00;64517.53;3723226;37;20884;-64
2022/06/03 00:08:43;;;;;;;;;17.75;17.00;;;;;-142.71;100.00;64517.53;3723205;37;20816;-63
2022/06/03 00:11:31;;;;;;;;;16.25;16.25;;;;;-142.71;100.00;64517.53;3724387;38;20603;-64
2022/06/03 00:15:06;;;;;;;;;18.25;17.00;;;;;-142.71;100.00;64517.53;3723555;38;20861;-64
2022/06/03 00:18:35;;;;;;;;;16.00;15.50;;;;;-142.71;100.00;64517.53;3723404;37;20771;-63
2022/06/03 00:21:07;;;;;;;;;13.50;13.50;;;;;-142.71;100.00;64517.53;3723816;38;20808;-64
2022/06/03 00:26:59;;;;;;;;;15.75;15.50;;;;;-142.71;100.00;64517.53;3724000;37;20548;-64
2022/06/03 00:29:56;;;;;;;;;13.25;12.50;;;;;-142.71;100.00;64517.53;3724003;37;20667;-63
2022/06/03 00:32:48;;;;;;;;;15.50;15.50;;;;;-142.71;100.00;64517.53;3724083;37;20561;-63
2022/06/03 00:35:41;;;;;;;;;15.00;14.00;;;;;-142.71;100.00;64517.53;3723793;37;20705;-63
2022/06/03 00:38:14;;;;;;;;;17.75;17.25;;;;;-142.71;100.00;64517.53;3723903;37;20615;-62
2022/06/03 00:43:49;;;;;;;;;14.00;13.00;;;;;-142.71;100.00;64517.53;3724279;37;20558;-65
2022/06/03 00:46:48;;;;;;;;;14.75;14.75;;;;;-142.71;100.00;64517.53;3724466;38;20600;-64
2022/06/03 00:56:17;;;;;;;;;14.50;14.25;;;;;-142.71;100.00;64517.53;3723810;37;20445;-64
2022/06/03 00:59:08;;;;;;;;;14.25;14.00;;;;;-142.71;100.00;64517.53;3723385;38;20615;-64
2022/06/03 01:02:10;;;;;;;;;15.75;15.75;;;;;-142.71;100.00;64517.53;3724327;37;20458;-62
2022/06/03 01:04:42;;;;;;;;;14.25;14.25;;;;;-142.71;100.00;64517.53;3724105;37;20688;-64
2022/06/03 01:07:18;;;;;;;;;17.75;15.25;;;;;-142.71;100.00;64517.53;3723763;37;20558;-62
2022/06/03 01:09:51;;;;;;;;;14.50;13.00;;;;;-142.71;100.00;64517.53;3723794;38;20585;-63
2022/06/03 01:12:24;;;;;;;;;15.00;14.00;;;;;-142.71;100.00;64517.53;3723858;37;20481;-63
2022/06/03 01:18:41;;;;;;;;;17.75;15.75;;;;;-142.71;100.00;64517.53;3724138;37;20759;-62
2022/06/03 01:21:18;;;;;;;;;17.50;17.50;;;;;-142.71;100.00;64517.53;3724025;38;20602;-62
2022/06/03 01:30:08;;;;;;;;;12.50;12.50;;;;;-142.71;100.00;64517.53;3723936;38;20425;-64
2022/06/03 01:35:54;;;;;;;;;14.00;13.00;;;;;-142.71;100.00;64517.53;3723608;37;20636;-63
2022/06/03 01:41:50;;;;;;;;;13.50;13.50;;;;;-142.71;100.00;64517.53;3723446;38;20654;-63
2022/06/03 01:45:08;;;;;;;;;16.00;15.50;;;;;-142.71;100.00;64517.53;3723748;37;20434;-61
2022/06/03 01:47:44;;;;;;;;;15.00;13.75;;;;;-142.71;100.00;64517.53;3723644;38;20508;-62
2022/06/03 01:50:34;;;;;;;;;16.00;14.75;;;;;-142.71;100.00;64517.53;3723181;37;20489;-65
2022/06/03 01:53:17;;;;;;;;;19.75;19.75;;;;;-142.71;100.00;64517.53;3723904;37;20651;-62
2022/06/03 01:56:28;;;;;;;;;17.50;16.75;;;;;-142.71;100.00;64517.53;3723632;37;20555;-62
2022/06/03 01:59:34;;;;;;;;;21.25;19.25;;;;;-142.71;100.00;64517.53;3724087;37;20544;-64
2022/06/03 02:02:50;;;;;;;;;27.25;25.50;;;;;-142.71;100.00;64517.53;3723714;38;20654;-64
2022/06/03 02:05:22;;;;;;;;;26.50;24.50;;;;;-142.71;100.00;64517.53;3723922;37;20590;-64
2022/06/03 02:08:03;;;;;;;;;25.25;25.25;;;;;-142.71;100.00;64517.53;3723888;38;20613;-62
2022/06/03 02:11:06;;;;;;;;;26.50;26.50;;;;;-142.71;100.00;64517.53;3724117;37;20443;-65
2022/06/03 02:13:37;;;;;;;;;25.75;25.75;;;;;-142.71;100.00;64517.53;3724100;37;20445;-64
2022/06/03 02:19:24;;;;;;;;;25.50;23.25;;;;;-142.71;100.00;64517.53;3723967;37;20599;-63
2022/06/03 02:22:02;;;;;;;;;26.50;26.25;;;;;-142.71;100.00;64517.53;3724191;37;20454;-63
2022/06/03 02:25:03;;;;;;;;;31.00;29.25;;;;;-142.71;100.00;64517.53;3724041;38;20474;-65
2022/06/03 02:28:00;;;;;;;;;24.75;24.50;;;;;-142.71;100.00;64517.53;3723920;37;20417;-63
2022/06/03 02:30:31;;;;;;;;;30.25;28.75;;;;;-142.71;100.00;64517.53;3723535;38;20415;-62
2022/06/03 02:33:24;;;;;;;;;27.00;26.25;;;;;-142.71;100.00;64517.53;3723692;37;20439;-65
2022/06/03 02:39:31;;;;;;;;;30.25;28.75;;;;;-142.71;100.00;64517.53;3724089;37;20697;-63
2022/06/03 02:42:03;;;;;;;;;28.00;28.00;;;;;-142.71;100.00;64517.53;3723746;37;20531;-63
2022/06/03 02:44:58;;;;;;;;;25.75;25.75;;;;;-142.71;100.00;64517.53;3723864;37;20591;-64
2022/06/03 02:47:53;;;;;;;;;26.50;25.50;;;;;-142.71;100.00;64517.53;3722955;37;20524;-62
2022/06/03 02:50:25;;;;;;;;;30.00;28.25;;;;;-142.71;100.00;64517.53;3723832;37;20581;-62
2022/06/03 02:53:13;;;;;;;;;28.50;28.00;;;;;-142.71;100.00;64517.53;3723381;38;20726;-62
2022/06/03 02:55:54;;;;;;;;;33.00;31.00;;;;;-142.71;100.00;64517.53;3723747;37;20583;-62
2022/06/03 02:59:12;;;;;;;;;34.75;31.50;;;;;-142.71;100.00;64517.53;3723571;37;20571;-62
2022/06/03 03:02:01;;;;;;;;;17.50;17.25;;;;;-142.71;100.00;64517.53;3723649;38;20372;-63
2022/06/03 03:05:19;;;;;;;;;27.00;26.75;;;;;-142.71;100.00;64517.53;3723166;38;20539;-63
2022/06/03 03:08:06;;;;;;;;;26.50;25.75;;;;;-142.71;100.00;64517.53;3723152;37;20570;-63
2022/06/03 03:11:07;;;;;;;;;25.75;25.75;;;;;-142.71;100.00;64517.53;3723907;37;20627;-63
2022/06/03 03:14:25;;;;;;;;;22.00;22.00;;;;;-142.71;100.00;64517.53;3723973;37;20422;-63
2022/06/03 03:32:02;;;;;;;;;21.25;21.25;;;;;-142.71;100.00;64517.53;3723621;37;20327;-62
2022/06/03 03:35:05;;;;;;;;;21.75;21.75;;;;;-142.71;100.00;64517.53;3724114;38;20348;-63
2022/06/03 03:38:30;;;;;;;;;19.00;19.00;;;;;-142.71;100.00;64517.53;3723643;37;20328;-64
2022/06/03 03:41:19;;;;;;;;;24.00;23.00;;;;;190.06;100.00;-22848.75;3724109;38;20344;-63
2022/06/03 03:44:18;;;;;;;;;23.00;22.50;;;;;-142.71;100.00;64517.53;3724086;37;20341;-62
2022/06/03 03:53:07;;;;;;;;;19.00;18.75;;;;;-142.71;100.00;64517.53;3723313;37;20327;-63
2022/06/03 03:55:50;;;;;;;;;24.75;24.00;;;;;-142.71;100.00;64517.53;3723942;37;20315;-64
2022/06/03 03:58:52;;;;;;;;;20.00;19.50;;;;;-142.71;100.00;64517.53;3723850;37;20507;-62
2022/06/03 04:01:42;;;;;;;;;19.50;19.50;;;;;-142.71;100.00;64517.53;3724120;38;20317;-62
2022/06/03 04:05:02;;;;;;;;;21.75;21.75;;;;;-142.71;100.00;64517.53;3724268;38;20288;-63
2022/06/03 04:07:51;;;;;;;;;20.25;20.25;;;;;-142.71;100.00;64517.53;3724111;37;20321;-64
2022/06/03 04:11:15;;;;;;;;;21.50;21.50;;;;;-142.71;100.00;64517.53;3723640;37;20190;-63
2022/06/03 04:13:46;;;;;;;;;20.75;20.75;;;;;-142.71;100.00;64517.53;3723593;37;20400;-64
2022/06/03 04:16:40;;;;;;;;;23.25;21.75;;;;;-142.71;100.00;64517.53;3723124;37;20336;-65
2022/06/03 04:25:26;;;;;;;;;18.75;18.75;;;;;-142.71;100.00;64517.53;3723866;37;20343;-62
2022/06/03 04:27:58;;;;;;;;;20.50;19.50;;;;;-142.71;100.00;64517.53;3723774;38;20378;-62
2022/06/03 04:30:58;;;;;;;;;21.75;21.75;;;;;-142.71;100.00;64517.53;3724048;37;20280;-63
2022/06/03 04:34:11;;;;;;;;;23.00;22.00;;;;;-142.71;100.00;64517.53;3724261;38;20236;-63
2022/06/03 04:36:57;;;;;;;;;19.75;19.75;;;;;-142.71;100.00;64517.53;3723925;38;20383;-61
2022/06/03 04:40:16;;;;;;;;;20.75;19.75;;;;;-142.71;100.00;64517.53;3723552;38;20249;-63
2022/06/03 04:49:10;;;;;;;;;19.75;19.75;;;;;-142.71;100.00;64517.53;3724234;38;20338;-62
2022/06/03 04:51:56;;;;;;;;;19.75;19.75;;;;;-142.71;100.00;64517.53;3724931;38;20244;-62
2022/06/03 04:55:08;;;;;;;;;18.75;18.75;;;;;-142.71;100.00;64517.53;3723875;38;20333;-64
2022/06/03 04:57:41;;;;;;;;;18.00;18.00;;;;;-142.71;100.00;64517.53;3723766;37;20474;-62
2022/06/03 05:00:33;;;;;;;;;16.50;16.00;;;;;-142.71;100.00;64517.53;3724155;37;20241;-64
2022/06/03 05:03:44;;;;;;;;;21.50;21.00;;;;;-142.71;100.00;64517.53;3723978;37;20315;-63
2022/06/03 05:06:43;;;;;;;;;20.75;20.75;;;;;-142.71;100.00;64517.53;3724359;38;20183;-64
2022/06/03 05:13:25;;;;;;;;;18.50;18.50;;;;;-142.71;100.00;64517.53;3723936;37;20318;-64
2022/06/03 05:15:57;;;;;;;;;17.50;17.50;;;;;-142.71;100.00;64517.53;3723613;37;20179;-62
2022/06/03 05:18:44;;;;;;;;;19.00;18.25;;;;;-142.71;100.00;64517.53;3726134;37;20370;-62
2022/06/03 05:24:23;;;;;;;;;18.75;18.75;;;;;-142.71;100.00;64517.53;3723947;37;20333;-64
2022/06/03 05:30:41;;;;;;;;;21.25;19.50;;;;;-142.71;100.00;64517.53;3724076;38;21239;-64
2022/06/03 05:33:25;;;;;;;;;17.75;17.75;;;;;-142.71;100.00;64517.53;3724178;38;20221;-64
2022/06/03 05:39:32;;;;;;;;;20.75;20.75;;;;;-142.71;100.00;64517.53;3723980;37;21437;-65
2022/06/03 05:45:29;;;;;;;;;20.25;19.75;;;;;-142.71;100.00;64517.53;3724014;37;21424;-64
2022/06/03 05:48:02;;;;;;;;;19.25;19.25;;;;;-142.71;100.00;64517.53;3723870;37;21255;-64
2022/06/03 05:50:53;;;;;;;;;21.75;20.75;;;;;-142.71;100.00;64517.53;3724353;37;21391;-65
2022/06/03 06:05:17;;;;;;;;;20.25;20.25;;;;;-142.71;100.00;64517.53;3724208;37;21117;-65
2022/06/03 06:08:20;;;;;;;;;21.00;20.00;;;;;-142.71;100.00;64517.53;3723611;37;21108;-64
2022/06/03 06:11:14;;;;;;;;;16.25;16.25;;;;;20.20;100.00;101372.19;3724139;37;21132;-63
2022/06/03 06:13:43;;;;;;;;;19.00;19.00;;;;;20.24;100.00;101796.75;3724010;38;21296;-64
2022/06/03 06:21:44;;;;;;;;;17.25;17.25;;;;;-142.71;100.00;64517.53;3724459;37;21108;-67
2022/06/03 06:42:05;;;;;;;;;17.00;16.00;;;;;-142.71;100.00;64517.53;3723229;38;21224;-63
2022/06/03 06:50:46;;;;;;;;;11.75;11.75;;;;;-142.71;100.00;64517.53;3724275;38;21223;-61
2022/06/03 06:53:42;;;;;;;;;19.50;18.75;;;;;-142.71;100.00;64517.53;3723723;37;21024;-62
2022/06/03 06:56:41;;;;;;;;;16.00;16.00;;;;;-142.71;100.00;64517.53;3724408;38;21240;-63
2022/06/03 06:59:12;;;;;;;;;16.50;16.50;;;;;-142.71;100.00;64517.53;3724062;37;21047;-63
2022/06/03 07:09:52;;;;;;;;;18.75;17.00;;;;;-142.71;100.00;64517.53;3724002;37;21073;-64
2022/06/03 07:15:14;;;;;;;;;18.25;17.00;;;;;-142.71;100.00;64517.53;3723972;37;21757;-64
2022/06/03 07:21:23;;;;;;;;;15.00;15.00;;;;;-142.71;100.00;64517.53;3724084;38;21176;-64
2022/06/03 07:32:02;;;;;;;;;15.25;15.25;;;;;-142.71;100.00;64517.53;3724071;38;21253;-65
2022/06/03 07:35:01;;;;;;;;;15.25;15.25;;;;;-142.71;100.00;64517.53;3724074;38;21363;-62
2022/06/03 08:01:51;;;;;;;;;13.25;13.25;;;;;-142.71;100.00;64517.53;3724080;38;21059;-63
2022/06/03 08:04:26;;;;;;;;;10.50;10.50;;;;;-142.71;100.00;64517.53;3724106;37;21079;-66
2022/06/03 08:12:06;;;;;;;;;15.00;15.00;;;;;-142.71;100.00;64517.53;3723513;38;21258;-64
2022/06/03 08:17:06;;;;;;;;;12.75;12.75;;;;;-142.71;100.00;64517.53;3724044;37;21001;-64
2022/06/03 08:19:37;;;;;;;;;14.25;13.25;;;;;-142.71;100.00;64517.53;3724452;38;21183;-64
2022/06/03 08:24:43;;;;;;;;;12.75;12.75;;;;;-142.71;100.00;64517.53;3724113;37;20929;-64
2022/06/03 08:35:13;;;;;;;;;12.00;11.25;;;;;-142.71;100.00;64517.53;3724063;37;20987;-64
2022/06/03 08:40:34;;;;;;;;;13.00;13.00;;;;;-142.71;100.00;64517.53;3722986;37;21184;-63
2022/06/03 08:43:31;;;;;;;;;13.25;12.75;;;;;-142.71;100.00;64517.53;3724381;38;21221;-64
2022/06/03 08:48:51;;;;;;;;;12.25;12.25;;;;;-142.71;100.00;64517.53;3724384;38;20980;-64
2022/06/03 08:54:18;;;;;;;;;11.00;11.00;;;;;-142.71;100.00;64517.53;3724140;37;21164;-63
2022/06/03 08:56:46;;;;;;;;;11.25;11.25;;;;;-142.71;100.00;64517.53;3724034;38;20991;-63
2022/06/03 08:59:50;;;;;;;;;11.00;11.00;;;;;-142.71;100.00;64517.53;3724113;38;21006;-62
2022/06/03 09:05:14;;;;;;;;;11.75;11.75;;;;;-142.71;100.00;64517.53;3724299;37;20929;-63
2022/06/03 09:10:30;;;;;;;;;12.00;12.00;;;;;-142.71;100.00;64517.53;3723971;37;21151;-62
2022/06/03 09:13:33;;;;;;;;;11.00;11.00;;;;;-142.71;100.00;64517.53;3724253;37;20987;-64
2022/06/03 09:18:50;;;;;;;;;11.00;11.00;;;;;-142.71;100.00;64517.53;3724070;37;20983;-66
2022/06/03 09:24:09;;;;;;;;;11.50;11.50;;;;;-142.71;100.00;64517.53;3724023;37;21203;-63
2022/06/03 09:34:32;;;;;;;;;3.75;3.75;;;;;-142.71;100.00;64517.53;3724300;37;20958;-71
2022/06/03 09:39:32;;;;;;;;;12.00;12.00;;;;;-142.71;100.00;64517.53;3724152;37;20939;-68
2022/06/03 09:44:30;;;;;;;;;7.25;7.25;;;;;-142.71;100.00;64517.53;3724051;37;20827;-69
2022/06/03 09:49:29;;;;;;;;;10.75;9.75;;;;;-142.71;100.00;64517.53;3724234;37;20912;-71
2022/06/03 09:52:02;;;;;;;;;8.50;8.50;;;;;-142.71;100.00;64517.53;3724458;38;20850;-68
2022/06/03 09:57:26;;;;;;;;;11.50;11.50;;;;;-142.71;100.00;64517.53;3724965;37;21079;-65
2022/06/03 10:00:03;;;;;;;;;10.25;10.25;;;;;-142.71;100.00;64517.53;3724211;37;20954;-69
2022/06/03 10:02:46;;;;;;;;;9.50;9.50;;;;;-142.71;100.00;64517.53;3723849;37;20970;-67
2022/06/03 10:13:08;;;;;;;;;13.25;12.75;;;;;-142.71;100.00;64517.53;3723513;37;20932;-64
2022/06/03 10:15:50;;;;;;;;;10.75;10.75;;;;;-142.71;100.00;64517.53;3723642;37;20887;-64
2022/06/03 10:18:25;;;;;;;;;8.25;8.25;;;;;-142.71;100.00;64517.53;3723807;37;20917;-69
2022/06/03 10:23:56;;;;;;;;;10.25;10.25;;;;;-142.71;100.00;64517.53;3724125;37;20964;-68
2022/06/03 10:26:50;;;;;;;;;7.75;7.75;;;;;-142.71;100.00;64517.53;3723984;38;20914;-66
2022/06/03 10:29:30;;;;;;;;;8.00;8.00;;;;;-142.71;100.00;64517.53;3723744;37;20858;-66
2022/06/03 10:37:09;;;;;;;;;6.50;6.50;;;;;-142.71;100.00;64517.53;3724067;38;20807;-67
2022/06/03 10:42:21;;;;;;;;;8.50;8.50;;;;;-142.71;100.00;64517.53;3724545;38;21020;-67
2022/06/03 10:44:52;;;;;;;;;8.00;7.25;;;;;-142.71;100.00;64517.53;3724722;37;20767;-68
2022/06/03 10:47:31;;;;;;;;;5.25;5.25;;;;;-142.71;100.00;64517.53;3723978;37;20781;-65
2022/06/03 11:05:48;;;;;;;;;9.25;9.00;;;;;-142.71;100.00;64517.53;3724047;38;20697;-66
2022/06/03 11:13:31;;;;;;;;;9.25;9.25;;;;;-142.71;100.00;64517.53;3723331;38;20740;-67
2022/06/03 11:16:03;;;;;;;;;8.00;8.00;;;;;-142.71;100.00;64517.53;3723650;37;20685;-65
2022/06/03 11:18:41;;;;;;;;;3.50;3.50;;;;;-142.71;100.00;64517.53;3724046;37;20759;-67
2022/06/03 11:21:25;;;;;;;;;9.25;8.75;;;;;-142.71;100.00;64517.53;3724139;37;20779;-64
2022/06/03 11:23:58;;;;;;;;;9.00;9.00;;;;;-142.71;100.00;64517.53;3724287;38;20989;-66
2022/06/03 11:31:46;;;;;;;;;6.00;6.00;;;;;-142.71;100.00;64517.53;3724271;38;20726;-66
2022/06/03 11:37:22;;;;;;;;;8.00;7.75;;;;;-142.71;100.00;64517.53;3723326;38;20702;-66
2022/06/03 11:39:57;;;;;;;;;7.50;7.50;;;;;-142.71;100.00;64517.53;3723282;37;20861;-66
2022/06/03 11:42:29;;;;;;;;;9.00;9.00;;;;;-142.71;100.00;64517.53;3723807;37;20811;-71
2022/06/03 11:45:21;;;;;;;;;8.75;8.75;;;;;-142.71;100.00;64517.53;3723789;37;20776;-67
2022/06/03 11:50:36;;;;;;;;;8.00;8.00;;;;;-142.71;100.00;64517.53;3723317;38;20849;-68
2022/06/03 11:53:04;;;;;;;;;6.75;6.75;;;;;-142.71;100.00;64517.53;3723993;37;20902;-72
2022/06/03 11:58:05;;;;;;;;;7.75;7.00;;;;;-142.71;100.00;64517.53;3724273;38;20754;-65
2022/06/03 12:00:54;;;;;;;;;8.75;8.25;;;;;-142.71;100.00;64517.53;3724372;38;20640;-67
2022/06/03 12:03:29;;;;;;;;;6.50;6.50;;;;;-142.71;100.00;64517.53;3724456;38;20787;-69
2022/06/03 12:06:02;;;;;;;;;5.50;5.25;;;;;-142.71;100.00;64517.53;3724839;38;20628;-70
2022/06/03 12:14:38;;;;;;;;;6.75;6.75;;;;;-142.71;100.00;64517.53;3723540;37;20675;-67
2022/06/03 12:17:29;;;;;;;;;6.75;6.75;;;;;-142.71;100.00;64517.53;3724305;37;21064;-65
2022/06/03 12:20:37;;;;;;;;;7.75;7.75;;;;;-142.71;100.00;64517.53;3723899;38;20870;-68
2022/06/03 12:23:07;;;;;;;;;6.25;6.25;;;;;-142.71;100.00;64517.53;3723790;37;20787;-69
2022/06/03 12:25:39;;;;;;;;;6.50;6.50;;;;;-142.71;100.00;64517.53;3723913;38;20848;-69
2022/06/03 12:28:13;;;;;;;;;6.75;6.75;;;;;-142.71;100.00;64517.53;3723706;38;20897;-67
2022/06/03 12:30:58;;;;;;;;;7.50;7.25;;;;;-142.71;100.00;64517.53;3724381;37;20725;-65
2022/06/03 12:33:52;;;;;;;;;7.00;7.00;;;;;-142.71;100.00;64517.53;3726107;37;20571;-67
2022/06/03 12:36:45;;;;;;;;;6.25;6.25;;;;;-142.71;100.00;64517.53;3727176;38;20631;-65
2022/06/03 12:39:20;;;;;;;;;7.25;7.00;;;;;-142.71;100.00;64517.53;3726669;38;20571;-69
2022/06/03 12:42:00;;;;;;;;;7.25;7.25;;;;;25.68;64.10;101663.34;3724409;37;20899;-68
2022/06/03 12:47:46;;;;;;;;;7.75;7.75;;;;;25.24;66.28;101646.66;3724238;37;20838;-68
2022/06/03 12:56:02;;;;;;;;;6.75;6.50;;;;;25.78;63.04;101646.84;3724814;38;20680;-67
2022/06/03 12:59:30;;;;;;;;;7.00;7.00;;;;;25.67;61.97;101648.66;3725488;38;20651;-65
2022/06/03 13:05:33;;;;;;;;;7.00;7.00;;;;;25.60;61.85;101642.41;3724557;38;20666;-66
2022/06/03 13:08:05;;;;;;;;;7.75;7.75;;;;;25.76;61.39;101650.97;3724575;38;20549;-66
2022/06/03 13:11:31;;;;;;;;;3.50;3.50;;;;;25.98;59.99;101641.53;3724577;37;20620;-68
2022/06/03 13:14:15;;;;;;;;;6.75;6.75;;;;;26.12;58.74;101628.06;3724791;38;20524;-69
2022/06/03 13:22:03;;;;;;;;;6.00;6.00;;;;;26.14;54.17;101619.50;3727670;37;20556;-68
2022/06/03 13:24:33;;;;;;;;;6.00;6.00;;;;;26.30;53.07;101624.09;3723936;38;21082;-68
2022/06/03 13:27:30;;;;;;;;;6.75;6.75;;;;;26.73;52.76;101627.84;3724275;38;20530;-67
2022/06/03 13:43:39;;;;;;;;;4.00;4.00;;;;;26.51;53.52;101609.34;3724506;37;20607;-68
2022/06/03 13:46:10;;;;;;;;;6.00;6.00;;;;;25.82;53.24;101598.09;3723672;37;20517;-67
2022/06/03 13:48:49;;;;;;;;;5.00;5.00;;;;;26.12;51.57;101593.94;3726464;37;20763;-68
2022/06/03 14:00:35;;;;;;;;;5.75;5.75;;;;;26.01;53.23;101588.28;3724171;38;20509;-69
2022/06/03 14:03:21;;;;;;;;;6.00;6.00;;;;;26.34;53.95;101603.09;3723676;38;20806;-66
2022/06/03 14:06:19;;;;;;;;;8.75;8.00;;;;;26.69;53.44;101594.19;3724083;38;20565;-68
2022/06/03 14:09:06;;;;;;;;;5.00;5.00;;;;;26.92;53.01;101595.75;3724274;37;20535;-68
2022/06/03 14:11:53;;;;;;;;;5.75;5.75;;;;;27.10;50.23;101595.34;3723312;38;20642;-71
2022/06/03 14:14:27;;;;;;;;;6.25;5.75;;;;;27.25;49.95;101583.47;3723785;38;20698;-69
2022/06/03 14:17:23;;;;;;;;;6.00;6.00;;;;;27.40;48.26;101554.91;3724142;38;20548;-69
2022/06/03 14:19:59;;;;;;;;;5.00;5.00;;;;;26.94;52.18;101571.34;3724191;38;20539;-69
2022/06/03 14:34:19;;;;;;;;;5.00;5.00;;;;;26.64;48.05;101571.94;3724943;38;20725;-68
2022/06/03 14:36:50;;;;;;;;;4.50;4.00;;;;;27.09;47.34;101565.87;3724094;37;20463;-69
2022/06/03 14:39:22;;;;;;;;;6.00;6.00;;;;;26.91;48.21;101560.75;3723749;38;20603;-68
2022/06/03 14:47:12;;;;;;;;;6.50;6.00;;;;;27.26;46.64;101551.78;3723959;38;20647;-69
2022/06/03 14:49:42;;;;;;;;;4.75;4.75;;;;;27.31;46.64;101551.81;3724020;37;20690;-67
2022/06/03 14:52:16;;;;;;;;;4.00;4.00;;;;;27.40;43.75;101550.19;3724073;38;20391;-68
2022/06/03 14:55:08;;;;;;;;;0.75;0.00;;;;;27.29;44.76;101534.56;3724147;37;20475;-67
2022/06/03 14:57:42;;;;;;;;;5.00;5.00;;;;;27.39;44.80;101544.91;3724275;38;20456;-67
2022/06/03 15:00:20;;;;;;;;;4.50;4.50;;;;;27.33;44.44;101532.94;3724093;38;20355;-69
2022/06/03 15:03:05;;;;;;;;;5.00;5.00;;;;;27.55;45.32;101535.50;3724187;37;20398;-68
2022/06/03 15:05:52;;;;;;;;;4.25;4.25;;;;;27.44;44.33;101542.97;3723256;38;20494;-72
2022/06/03 15:09:07;;;;;;;;;3.00;3.00;;;;;27.34;43.94;101529.88;3724060;38;20448;-69
2022/06/03 15:11:45;;;;;;;;;5.25;5.25;;;;;27.68;43.65;101530.28;3723492;38;20488;-66
2022/06/03 15:16:58;;;;;;;;;4.75;4.75;;;;;27.20;44.31;101539.81;3723859;37;20429;-72
2022/06/03 15:19:36;;;;;;;;;4.50;4.50;;;;;27.25;45.33;101536.22;3723699;37;20362;-68
2022/06/03 15:24:47;;;;;;;;;4.50;4.50;;;;;27.43;43.70;101529.34;3724086;37;20602;-67
2022/06/03 15:30:09;;;;;;;;;4.00;4.00;;;;;27.66;45.28;101526.09;3724037;37;20523;-67
2022/06/03 15:32:43;;;;;;;;;4.00;4.00;;;;;27.74;43.39;101522.78;3724120;37;20443;-67
2022/06/03 15:38:05;;;;;;;;;4.25;4.25;;;;;27.72;42.44;101525.00;3723847;38;20422;-68
2022/06/03 15:40:34;;;;;;;;;3.75;3.75;;;;;27.64;42.06;101517.19;3723987;38;20268;-68
2022/06/03 15:43:14;;;;;;;;;5.25;4.50;;;;;27.92;43.04;101524.22;3723623;37;20579;-69
2022/06/03 15:45:43;;;;;;;;;4.50;4.50;;;;;27.72;42.51;101516.66;3725279;37;20296;-69
2022/06/03 15:48:23;;;;;;;;;4.00;4.00;;;;;27.55;41.93;101525.22;3723786;37;20279;-70
2022/06/03 15:59:53;;;;;;;;;5.00;5.00;;;;;27.76;42.74;101520.56;3724291;38;20476;-70
2022/06/03 16:02:26;;;;;;;;;5.00;5.00;;;;;27.65;41.80;101530.81;3724420;38;20412;-70
2022/06/03 16:05:03;;;;;;;;;3.75;3.75;;;;;27.73;41.03;101504.41;3723991;37;20399;-68
2022/06/03 16:07:49;;;;;;;;;5.00;5.00;;;;;27.76;41.87;101531.69;3725957;37;20362;-69
2022/06/03 16:11:23;;;;;;;;;5.50;5.50;;;;;27.61;40.78;101537.22;3727086;37;20417;-69
2022/06/03 16:13:54;;;;;;;;;4.00;4.00;;;;;27.70;40.93;101532.78;3724290;38;20356;-68
2022/06/03 16:19:39;;;;;;;;;3.75;3.75;;;;;27.57;41.95;101541.63;3724236;37;20340;-68
2022/06/03 16:22:51;;;;;;;;;5.00;5.00;;;;;27.42;41.30;101547.97;3724323;37;20321;-69
2022/06/03 16:25:44;;;;;;;;;3.00;3.00;;;;;27.37;40.07;101547.97;3723969;37;20386;-70
2022/06/03 16:28:17;;;;;;;;;4.50;3.75;;;;;27.61;40.55;101538.03;3724460;37;20407;-68
2022/06/03 16:31:03;;;;;;;;;4.00;4.00;;;;;27.37;41.20;101543.22;3724217;38;20320;-69
2022/06/03 16:33:56;;;;;;;;;3.25;3.25;;;;;27.41;39.58;101542.69;3723989;38;20301;-66
2022/06/03 16:36:57;;;;;;;;;5.25;5.25;;;;;27.46;41.56;101537.16;3723993;38;20393;-68
2022/06/03 16:39:39;;;;;;;;;5.00;5.00;;;;;27.49;41.79;101542.16;3724196;38;20360;-68
2022/06/03 16:42:58;;;;;;;;;4.25;4.25;;;;;27.45;40.85;101549.38;3724028;37;20285;-70
2022/06/03 16:54:58;;;;;;;;;8.50;8.00;;;;;27.36;43.15;101554.63;3724576;38;20257;-69
2022/06/03 16:57:27;;;;;;;;;5.75;5.50;;;;;27.21;42.56;101551.75;3725735;37;20201;-70
2022/06/03 17:00:21;;;;;;;;;8.00;8.00;;;;;27.17;44.69;101556.19;3725272;38;20328;-68
2022/06/03 17:03:07;;;;;;;;;5.00;4.75;;;;;27.01;43.74;101549.75;3723450;38;20327;-71
2022/06/03 17:16:09;;;;;;;;;5.25;5.25;;;;;25.89;51.39;101562.66;3724459;37;20309;-68
2022/06/03 17:18:38;;;;;;;;;6.00;6.00;;;;;25.80;53.05;101558.69;3724488;37;20302;-72
2022/06/03 17:21:40;;;;;;;;;6.25;6.25;;;;;25.33;57.16;101564.75;3724090;38;20340;-70
2022/06/03 17:29:35;;;;;;;;;10.75;9.25;;;;;24.54;68.90;101566.03;3723935;37;20293;-70
2022/06/03 17:32:53;;;;;;;;;15.00;13.50;;;;;24.29;76.46;101561.78;3724081;37;20422;-70
2022/06/03 17:38:45;;;;;;;;;15.00;15.00;;;;;23.64;85.96;101559.44;3723951;37;20373;-72
2022/06/03 17:44:06;;;;;;;;;15.25;15.25;;;;;23.18;91.53;101557.62;3723955;37;20597;-70
2022/06/03 17:49:55;;;;;;;;;10.25;10.25;;;;;22.67;97.00;101566.63;3724160;37;20284;-70
2022/06/03 18:12:25;;;;;;;;;17.00;16.00;;;;;21.61;100.00;101576.53;3724170;38;21097;-67
2022/06/03 18:15:08;;;;;;;;;16.50;14.50;;;;;21.53;100.00;101578.75;3724309;37;21232;-70
2022/06/03 18:17:52;;;;;;;;;11.50;11.50;;;;;21.24;100.00;101577.62;3724196;37;21217;-69
2022/06/03 18:20:39;;;;;;;;;14.25;14.00;;;;;21.15;100.00;101579.81;3724274;38;21181;-69
2022/06/03 18:23:51;;;;;;;;;13.00;12.75;;;;;20.97;100.00;101588.03;3724008;38;21236;-71
2022/06/03 18:26:21;;;;;;;;;14.25;14.25;;;;;20.81;100.00;101589.47;3724162;38;21116;-67
2022/06/03 18:28:56;;;;;;;;;11.25;11.25;;;;;20.72;100.00;101588.09;3724104;37;21191;-71
2022/06/03 18:31:45;;;;;;;;;13.75;13.75;;;;;20.62;100.00;101582.25;3724049;37;21194;-68
2022/06/03 18:34:19;;;;;;;;;14.25;14.25;;;;;20.62;100.00;101587.75;3724382;38;21096;-71
2022/06/03 18:37:12;;;;;;;;;11.00;10.75;;;;;20.42;100.00;101582.41;3724177;37;21289;-71
2022/06/03 18:40:09;;;;;;;;;14.00;13.50;;;;;20.25;100.00;101597.75;3724131;38;21325;-71
2022/06/03 18:43:02;;;;;;;;;11.25;11.25;;;;;20.14;100.00;101596.56;3723398;38;21250;-68
2022/06/03 18:45:51;;;;;;;;;13.25;13.25;;;;;19.94;100.00;101591.19;3724388;37;21108;-70
2022/06/03 18:51:49;;;;;;;;;13.00;12.00;;;;;19.96;100.00;101589.06;3723859;37;21310;-68
2022/06/03 18:54:46;;;;;;;;;10.00;9.50;;;;;19.45;100.00;101594.56;3723251;38;21139;-68
2022/06/03 18:57:19;;;;;;;;;11.50;11.50;;;;;19.86;100.00;101594.19;3723796;38;21036;-67
2022/06/03 19:00:05;;;;;;;;;12.50;11.50;;;;;19.49;100.00;101571.94;3722904;38;21602;-69
2022/06/03 19:03:06;;;;;;;;;10.75;10.50;;;;;19.83;100.00;101606.44;3724014;37;21062;-70
2022/06/03 19:05:41;;;;;;;;;14.25;13.75;;;;;19.17;100.00;101614.94;3724388;38;21081;-73
2022/06/03 19:11:35;;;;;;;;;10.50;10.50;;;;;19.53;100.00;101632.81;3724076;37;21285;-69
2022/06/03 19:14:05;;;;;;;;;11.00;10.00;;;;;18.94;100.00;101630.16;3725416;37;21048;-70
2022/06/03 19:19:39;;;;;;;;;12.25;12.25;;;;;18.92;100.00;101611.19;3724183;37;21338;-68
2022/06/03 19:23:11;;;;;;;;;12.50;12.50;;;;;19.17;100.00;101623.19;3724296;38;21340;-69
2022/06/03 19:25:39;;;;;;;;;15.00;13.50;;;;;19.07;100.00;101621.94;3724545;37;21163;-69
2022/06/03 19:28:34;;;;;;;;;12.50;12.00;;;;;18.93;100.00;101625.75;3724493;37;21072;-68
2022/06/03 19:31:10;;;;;;;;;14.00;13.00;;;;;18.90;100.00;101628.91;3724252;38;21284;-69
2022/06/03 19:42:41;;;;;;;;;12.75;12.75;;;;;18.49;100.00;101628.03;3724316;38;20993;-66